createdAt,value
2022-11-19T00:00:05.379Z,983.86
2022-11-19T00:01:05.401Z,983.89
2022-11-19T00:02:05.468Z,983.80
2022-11-19T00:03:05.400Z,983.88
2022-11-19T00:04:05.437Z,983.82
2022-11-19T00:05:05.461Z,983.86
2022-11-19T00:06:05.464Z,983.93
2022-11-19T00:07:05.505Z,983.85
2022-11-19T00:08:05.480Z,983.88
2022-11-19T00:09:05.491Z,983.86
2022-11-19T00:10:05.503Z,983.88
2022-11-19T00:11:09.451Z,983.86
2022-11-19T00:12:05.492Z,983.80
2022-11-19T00:13:05.512Z,983.83
2022-11-19T00:14:05.508Z,983.87
2022-11-19T00:15:05.518Z,983.85
2022-11-19T00:16:05.533Z,983.81
2022-11-19T00:17:05.533Z,983.84
2022-11-19T00:18:05.522Z,983.88
2022-11-19T00:19:05.509Z,983.98
2022-11-19T00:20:05.515Z,983.94
2022-11-19T00:21:05.525Z,983.91
2022-11-19T00:22:05.510Z,983.92
2022-11-19T00:23:05.521Z,983.89
2022-11-19T00:24:05.506Z,983.95
2022-11-19T00:25:05.518Z,983.93
2022-11-19T00:26:05.540Z,983.93
2022-11-19T00:27:05.524Z,983.98
2022-11-19T00:28:05.549Z,983.96
2022-11-19T00:29:05.564Z,984.02
2022-11-19T00:30:15.379Z,984.06
2022-11-19T00:31:05.566Z,984.02
2022-11-19T00:32:05.559Z,984.05
2022-11-19T00:33:05.546Z,984.15
2022-11-19T00:34:05.561Z,984.08
2022-11-19T00:35:05.583Z,984.12
2022-11-19T00:36:05.582Z,984.17
2022-11-19T00:37:05.574Z,984.15
2022-11-19T00:38:05.557Z,984.13
2022-11-19T00:39:05.560Z,984.08
2022-11-19T00:40:05.551Z,984.10
2022-11-19T00:41:05.587Z,984.12
2022-11-19T00:42:05.531Z,984.11
2022-11-19T00:43:05.531Z,984.13
2022-11-19T00:44:05.535Z,984.20
2022-11-19T00:45:05.531Z,984.19
2022-11-19T00:46:05.557Z,984.18
2022-11-19T00:47:05.554Z,984.19
2022-11-19T00:48:05.561Z,984.17
2022-11-19T00:49:05.563Z,984.16
2022-11-19T00:50:05.564Z,984.11
2022-11-19T00:51:05.581Z,984.13
2022-11-19T00:52:05.569Z,984.14
2022-11-19T00:53:05.576Z,984.13
2022-11-19T00:54:05.560Z,984.19
2022-11-19T00:55:05.570Z,984.18
2022-11-19T00:56:05.573Z,984.17
2022-11-19T00:57:05.564Z,984.22
2022-11-19T00:58:05.577Z,984.21
2022-11-19T00:59:05.592Z,984.15
2022-11-19T01:00:05.568Z,984.18
2022-11-19T01:01:05.586Z,984.14
2022-11-19T01:02:05.582Z,984.14
2022-11-19T01:03:05.591Z,984.17
2022-11-19T01:04:05.591Z,984.18
2022-11-19T01:05:05.613Z,984.17
2022-11-19T01:06:05.602Z,984.22
2022-11-19T01:07:05.623Z,984.19
2022-11-19T01:08:05.581Z,984.21
2022-11-19T01:09:05.579Z,984.16
2022-11-19T01:10:05.589Z,984.18
2022-11-19T01:11:05.606Z,984.21
2022-11-19T01:12:05.573Z,984.25
2022-11-19T01:13:05.559Z,984.27
2022-11-19T01:14:05.568Z,984.29
2022-11-19T01:15:05.570Z,984.17
2022-11-19T01:16:05.576Z,984.23
2022-11-19T01:17:05.617Z,984.23
2022-11-19T01:18:05.561Z,984.27
2022-11-19T01:19:05.579Z,984.29
2022-11-19T01:20:05.623Z,984.25
2022-11-19T01:21:05.589Z,984.26
2022-11-19T01:22:05.594Z,984.29
2022-11-19T01:23:05.639Z,984.31
2022-11-19T01:24:05.596Z,984.32
2022-11-19T01:25:05.600Z,984.31
2022-11-19T01:26:05.644Z,984.42
2022-11-19T01:27:05.661Z,984.33
2022-11-19T01:28:05.674Z,984.38
2022-11-19T01:29:05.707Z,984.40
2022-11-19T01:30:05.693Z,984.38
2022-11-19T01:31:28.314Z,984.48
2022-11-19T01:32:28.328Z,984.46
2022-11-19T01:33:28.356Z,984.51
2022-11-19T01:34:28.343Z,984.47
2022-11-19T01:35:28.335Z,984.42
2022-11-19T01:36:28.320Z,984.47
2022-11-19T01:37:28.329Z,984.46
2022-11-19T01:38:28.346Z,984.39
2022-11-19T01:39:28.347Z,984.43
2022-11-19T01:40:28.328Z,984.48
2022-11-19T01:41:28.318Z,984.44
2022-11-19T01:42:28.316Z,984.46
2022-11-19T01:43:28.313Z,984.46
2022-11-19T01:44:28.330Z,984.36
2022-11-19T01:45:28.348Z,984.45
2022-11-19T01:46:28.328Z,984.45
2022-11-19T01:47:28.330Z,984.46
2022-11-19T01:48:28.338Z,984.45
2022-11-19T01:49:28.326Z,984.45
2022-11-19T01:50:28.335Z,984.46
2022-11-19T01:51:28.328Z,984.49
2022-11-19T01:52:28.325Z,984.48
2022-11-19T01:53:28.374Z,984.50
2022-11-19T01:54:28.390Z,984.44
2022-11-19T01:55:28.346Z,984.50
2022-11-19T01:56:28.329Z,984.47
2022-11-19T01:57:28.333Z,984.47
2022-11-19T01:58:28.481Z,984.57
2022-11-19T01:59:28.504Z,984.59
2022-11-19T02:00:28.513Z,984.54
2022-11-19T02:01:28.525Z,984.50
2022-11-19T02:02:28.519Z,984.56
2022-11-19T02:03:28.527Z,984.51
2022-11-19T02:04:28.531Z,984.54
2022-11-19T02:05:28.557Z,984.54
2022-11-19T02:06:28.574Z,984.56
2022-11-19T02:07:28.620Z,984.57
2022-11-19T02:08:28.589Z,984.49
2022-11-19T02:09:28.604Z,984.56
2022-11-19T02:10:28.611Z,984.57
2022-11-19T02:11:28.636Z,984.49
2022-11-19T02:12:28.636Z,984.51
2022-11-19T02:13:28.659Z,984.55
2022-11-19T02:14:28.654Z,984.50
2022-11-19T02:15:28.706Z,984.55
2022-11-19T02:16:28.707Z,984.60
2022-11-19T02:17:28.721Z,984.53
2022-11-19T02:18:28.712Z,984.62
2022-11-19T02:19:28.723Z,984.69
2022-11-19T02:20:28.752Z,984.60
2022-11-19T02:21:28.742Z,984.60
2022-11-19T02:22:28.777Z,984.68
2022-11-19T02:23:28.759Z,984.61
2022-11-19T02:24:28.771Z,984.63
2022-11-19T02:25:28.795Z,984.56
2022-11-19T02:26:28.809Z,984.58
2022-11-19T02:27:28.838Z,984.61
2022-11-19T02:28:28.824Z,984.54
2022-11-19T02:29:28.836Z,984.63
2022-11-19T02:30:28.847Z,984.47
2022-11-19T02:31:28.867Z,984.55
2022-11-19T02:32:28.933Z,984.53
2022-11-19T02:33:28.887Z,984.62
2022-11-19T02:34:28.895Z,984.60
2022-11-19T02:35:28.979Z,984.51
2022-11-19T02:36:28.923Z,984.58
2022-11-19T02:37:28.951Z,984.63
2022-11-19T02:38:28.950Z,984.61
2022-11-19T02:39:28.957Z,984.59
2022-11-19T02:40:28.981Z,984.62
2022-11-19T02:41:28.985Z,984.69
2022-11-19T02:42:29.009Z,984.72
2022-11-19T02:43:29.018Z,984.79
2022-11-19T02:44:29.020Z,984.77
2022-11-19T02:45:29.034Z,984.73
2022-11-19T02:46:29.050Z,984.78
2022-11-19T02:47:29.066Z,984.73
2022-11-19T02:48:29.098Z,984.80
2022-11-19T02:49:29.085Z,984.76
2022-11-19T02:50:29.079Z,984.83
2022-11-19T02:51:29.094Z,984.78
2022-11-19T02:52:29.118Z,984.82
2022-11-19T02:53:29.149Z,984.81
2022-11-19T02:54:29.138Z,984.72
2022-11-19T02:55:29.154Z,984.77
2022-11-19T02:56:29.155Z,984.79
2022-11-19T02:57:29.209Z,984.79
2022-11-19T02:58:29.181Z,984.76
2022-11-19T02:59:29.212Z,984.82
2022-11-19T03:00:29.231Z,984.86
2022-11-19T03:01:29.262Z,984.84
2022-11-19T03:02:29.235Z,984.88
2022-11-19T03:03:29.258Z,984.89
2022-11-19T03:04:29.281Z,984.86
2022-11-19T03:05:29.280Z,984.89
2022-11-19T03:06:29.274Z,984.94
2022-11-19T03:07:29.314Z,984.84
2022-11-19T03:08:29.315Z,984.87
2022-11-19T03:09:29.327Z,984.92
2022-11-19T03:10:29.349Z,984.91
2022-11-19T03:11:29.333Z,984.87
2022-11-19T03:12:29.379Z,984.88
2022-11-19T03:13:29.364Z,984.87
2022-11-19T03:14:29.389Z,984.80
2022-11-19T03:15:29.403Z,984.95
2022-11-19T03:16:29.400Z,984.89
2022-11-19T03:17:29.407Z,984.88
2022-11-19T03:18:29.417Z,984.96
2022-11-19T03:19:29.429Z,984.92
2022-11-19T03:20:29.477Z,984.92
2022-11-19T03:21:29.456Z,984.93
2022-11-19T03:22:29.464Z,984.95
2022-11-19T03:23:29.482Z,984.95
2022-11-19T03:24:29.486Z,984.89
2022-11-19T03:25:29.508Z,985.01
2022-11-19T03:26:29.533Z,984.91
2022-11-19T03:27:29.533Z,984.94
2022-11-19T03:28:29.538Z,984.99
2022-11-19T03:29:29.553Z,984.99
2022-11-19T03:30:29.578Z,984.91
2022-11-19T03:31:29.624Z,984.85
2022-11-19T03:32:29.595Z,984.99
2022-11-19T03:33:29.765Z,985.02
2022-11-19T03:34:29.626Z,984.86
2022-11-19T03:35:29.623Z,984.91
2022-11-19T03:36:29.668Z,984.96
2022-11-19T03:37:29.665Z,984.95
2022-11-19T03:38:29.668Z,984.90
2022-11-19T03:39:29.680Z,984.89
2022-11-19T03:40:29.676Z,984.96
2022-11-19T03:41:29.708Z,984.89
2022-11-19T03:42:29.706Z,984.89
2022-11-19T03:43:29.719Z,985.00
2022-11-19T03:44:29.735Z,984.91
2022-11-19T03:45:29.734Z,984.88
2022-11-19T03:46:29.849Z,984.85
2022-11-19T03:47:29.767Z,984.88
2022-11-19T03:48:29.779Z,984.91
2022-11-19T03:49:29.794Z,984.92
2022-11-19T03:50:29.800Z,984.87
2022-11-19T03:51:29.818Z,985.02
2022-11-19T03:52:29.845Z,984.95
2022-11-19T03:53:29.846Z,984.92
2022-11-19T03:54:29.849Z,984.97
2022-11-19T03:55:29.859Z,985.00
2022-11-19T03:56:29.887Z,984.96
2022-11-19T03:57:29.876Z,984.99
2022-11-19T03:58:29.924Z,984.99
2022-11-19T03:59:30.418Z,984.93
2022-11-19T04:00:29.932Z,985.04
2022-11-19T04:01:30.014Z,985.05
2022-11-19T04:02:29.953Z,985.00
2022-11-19T04:03:29.966Z,984.99
2022-11-19T04:04:29.980Z,984.94
2022-11-19T04:05:29.985Z,985.03
2022-11-19T04:06:29.994Z,985.02
2022-11-19T04:07:30.062Z,985.03
2022-11-19T04:08:30.117Z,985.06
2022-11-19T04:09:30.025Z,985.13
2022-11-19T04:10:30.045Z,985.07
2022-11-19T04:11:30.060Z,985.02
2022-11-19T04:12:30.061Z,985.10
2022-11-19T04:13:30.072Z,985.14
2022-11-19T04:14:30.085Z,985.09
2022-11-19T04:15:30.106Z,985.13
2022-11-19T04:16:30.116Z,985.08
2022-11-19T04:17:30.119Z,985.16
2022-11-19T04:18:30.126Z,985.15
2022-11-19T04:19:30.124Z,985.15
2022-11-19T04:20:30.162Z,985.23
2022-11-19T04:21:30.174Z,985.23
2022-11-19T04:22:30.189Z,985.18
2022-11-19T04:23:30.187Z,985.25
2022-11-19T04:24:30.201Z,985.26
2022-11-19T04:25:30.217Z,985.26
2022-11-19T04:26:30.218Z,985.32
2022-11-19T04:27:30.241Z,985.38
2022-11-19T04:28:30.246Z,985.28
2022-11-19T04:29:30.268Z,985.32
2022-11-19T04:30:30.272Z,985.32
2022-11-19T04:31:30.305Z,985.43
2022-11-19T04:32:30.317Z,985.39
2022-11-19T04:33:30.321Z,985.31
2022-11-19T04:34:30.316Z,985.36
2022-11-19T04:35:30.350Z,985.46
2022-11-19T04:36:30.350Z,985.45
2022-11-19T04:37:30.367Z,985.43
2022-11-19T04:38:30.380Z,985.44
2022-11-19T04:39:30.401Z,985.45
2022-11-19T04:40:30.401Z,985.44
2022-11-19T04:41:30.402Z,985.42
2022-11-19T04:42:30.436Z,985.45
2022-11-19T04:43:30.427Z,985.45
2022-11-19T04:44:30.459Z,985.41
2022-11-19T04:45:30.453Z,985.41
2022-11-19T04:46:30.471Z,985.49
2022-11-19T04:47:30.502Z,985.43
2022-11-19T04:48:30.495Z,985.45
2022-11-19T04:49:30.502Z,985.43
2022-11-19T04:50:30.509Z,985.40
2022-11-19T04:51:30.532Z,985.41
2022-11-19T04:52:30.582Z,985.40
2022-11-19T04:53:30.552Z,985.48
2022-11-19T04:54:30.557Z,985.46
2022-11-19T04:55:30.577Z,985.41
2022-11-19T04:56:30.607Z,985.52
2022-11-19T04:57:30.598Z,985.48
2022-11-19T04:58:30.633Z,985.50
2022-11-19T04:59:30.631Z,985.51
2022-11-19T05:00:30.628Z,985.51
2022-11-19T05:01:30.747Z,985.54
2022-11-19T05:02:30.671Z,985.60
2022-11-19T05:03:30.662Z,985.53
2022-11-19T05:04:30.689Z,985.55
2022-11-19T05:05:30.690Z,985.57
2022-11-19T05:06:30.706Z,985.61
2022-11-19T05:07:30.736Z,985.52
2022-11-19T05:08:30.757Z,985.61
2022-11-19T05:09:30.737Z,985.57
2022-11-19T05:10:30.748Z,985.57
2022-11-19T05:11:30.755Z,985.64
2022-11-19T05:12:30.766Z,985.66
2022-11-19T05:13:30.811Z,985.66
2022-11-19T05:14:30.877Z,985.65
2022-11-19T05:15:30.802Z,985.70
2022-11-19T05:16:30.825Z,985.62
2022-11-19T05:17:30.845Z,985.66
2022-11-19T05:18:30.854Z,985.65
2022-11-19T05:19:30.879Z,985.67
2022-11-19T05:20:30.872Z,985.67
2022-11-19T05:21:30.898Z,985.66
2022-11-19T05:22:30.892Z,985.74
2022-11-19T05:23:30.925Z,985.73
2022-11-19T05:24:30.927Z,985.73
2022-11-19T05:25:30.944Z,985.71
2022-11-19T05:26:30.978Z,985.71
2022-11-19T05:27:30.947Z,985.67
2022-11-19T05:28:38.478Z,985.63
2022-11-19T05:29:30.984Z,985.55
2022-11-19T05:30:30.963Z,985.55
2022-11-19T05:31:31.097Z,985.64
2022-11-19T05:32:30.970Z,985.58
2022-11-19T05:33:33.981Z,985.61
2022-11-19T05:34:30.973Z,985.65
2022-11-19T05:35:30.984Z,985.64
2022-11-19T05:36:30.993Z,985.62
2022-11-19T05:37:30.962Z,985.61
2022-11-19T05:38:30.965Z,985.62
2022-11-19T05:39:30.975Z,985.59
2022-11-19T05:40:30.979Z,985.66
2022-11-19T05:41:30.978Z,985.63
2022-11-19T05:42:30.973Z,985.66
2022-11-19T05:43:30.969Z,985.61
2022-11-19T05:44:30.985Z,985.63
2022-11-19T05:45:30.971Z,985.72
2022-11-19T05:46:30.993Z,985.70
2022-11-19T05:47:30.979Z,985.75
2022-11-19T05:48:30.987Z,985.73
2022-11-19T05:49:31.003Z,985.71
2022-11-19T05:50:30.983Z,985.77
2022-11-19T05:51:30.986Z,985.73
2022-11-19T05:52:30.976Z,985.77
2022-11-19T05:53:30.981Z,985.75
2022-11-19T05:54:31.037Z,985.80
2022-11-19T05:55:30.991Z,985.76
2022-11-19T05:56:30.989Z,985.75
2022-11-19T05:57:30.985Z,985.81
2022-11-19T05:58:30.985Z,985.81
2022-11-19T05:59:30.993Z,985.77
2022-11-19T06:00:30.999Z,985.82
2022-11-19T06:01:30.983Z,985.82
2022-11-19T06:02:31.071Z,985.88
2022-11-19T06:03:31.034Z,985.87
2022-11-19T06:04:30.989Z,985.88
2022-11-19T06:05:33.614Z,985.86
2022-11-19T06:06:30.994Z,985.98
2022-11-19T06:07:31.077Z,985.93
2022-11-19T06:08:30.997Z,986.01
2022-11-19T06:09:31.003Z,985.96
2022-11-19T06:10:31.019Z,985.99
2022-11-19T06:11:31.001Z,986.02
2022-11-19T06:12:30.999Z,986.05
2022-11-19T06:13:31.007Z,985.98
2022-11-19T06:14:31.047Z,986.02
2022-11-19T06:15:31.008Z,986.05
2022-11-19T06:16:31.003Z,986.07
2022-11-19T06:17:30.997Z,986.08
2022-11-19T06:18:31.008Z,986.05
2022-11-19T06:19:31.005Z,986.07
2022-11-19T06:20:31.022Z,985.99
2022-11-19T06:21:31.015Z,986.02
2022-11-19T06:22:31.004Z,985.98
2022-11-19T06:23:31.008Z,985.97
2022-11-19T06:24:31.019Z,986.01
2022-11-19T06:25:31.044Z,985.96
2022-11-19T06:26:31.048Z,985.95
2022-11-19T06:27:31.020Z,985.98
2022-11-19T06:28:31.011Z,985.99
2022-11-19T06:29:31.021Z,985.99
2022-11-19T06:30:31.032Z,985.96
2022-11-19T06:31:31.038Z,986.01
2022-11-19T06:32:31.016Z,986.04
2022-11-19T06:33:31.021Z,986.02
2022-11-19T06:34:31.036Z,986.06
2022-11-19T06:35:31.016Z,986.00
2022-11-19T06:36:37.317Z,986.06
2022-11-19T06:37:31.008Z,986.00
2022-11-19T06:38:31.030Z,986.04
2022-11-19T06:39:31.030Z,986.00
2022-11-19T06:40:31.034Z,985.96
2022-11-19T06:41:31.031Z,986.02
2022-11-19T06:42:31.048Z,985.97
2022-11-19T06:43:31.033Z,985.95
2022-11-19T06:44:31.029Z,985.99
2022-11-19T06:45:31.032Z,985.97
2022-11-19T06:46:31.026Z,985.96
2022-11-19T06:47:31.061Z,985.94
2022-11-19T06:48:31.044Z,986.02
2022-11-19T06:49:31.023Z,985.97
2022-11-19T06:50:31.028Z,986.08
2022-11-19T06:51:31.034Z,986.05
2022-11-19T06:52:31.056Z,986.07
2022-11-19T06:53:31.032Z,986.09
2022-11-19T06:54:31.035Z,986.08
2022-11-19T06:55:31.042Z,986.10
2022-11-19T06:56:31.044Z,986.10
2022-11-19T06:57:31.066Z,986.11
2022-11-19T06:58:31.038Z,986.11
2022-11-19T06:59:31.041Z,986.13
2022-11-19T07:00:31.038Z,986.21
2022-11-19T07:01:31.089Z,986.28
2022-11-19T07:02:31.063Z,986.18
2022-11-19T07:03:31.057Z,986.21
2022-11-19T07:04:31.066Z,986.22
2022-11-19T07:05:31.072Z,986.26
2022-11-19T07:06:31.053Z,986.23
2022-11-19T07:07:31.116Z,986.24
2022-11-19T07:08:31.058Z,986.29
2022-11-19T07:09:31.067Z,986.26
2022-11-19T07:10:31.050Z,986.26
2022-11-19T07:11:31.056Z,986.35
2022-11-19T07:12:31.056Z,986.30
2022-11-19T07:13:31.056Z,986.28
2022-11-19T07:14:31.074Z,986.30
2022-11-19T07:15:31.059Z,986.34
2022-11-19T07:16:31.074Z,986.40
2022-11-19T07:17:31.058Z,986.34
2022-11-19T07:18:31.076Z,986.31
2022-11-19T07:19:31.068Z,986.37
2022-11-19T07:20:31.059Z,986.44
2022-11-19T07:21:31.061Z,986.50
2022-11-19T07:22:31.078Z,986.43
2022-11-19T07:23:31.065Z,986.49
2022-11-19T07:24:31.079Z,986.55
2022-11-19T07:25:31.058Z,986.53
2022-11-19T07:26:31.060Z,986.48
2022-11-19T07:27:31.060Z,986.52
2022-11-19T07:28:31.088Z,986.57
2022-11-19T07:29:31.081Z,986.58
2022-11-19T07:30:31.071Z,986.62
2022-11-19T07:31:51.810Z,986.64
2022-11-19T07:32:51.833Z,986.61
2022-11-19T07:33:51.865Z,986.60
2022-11-19T07:34:51.875Z,986.61
2022-11-19T07:35:51.843Z,986.63
2022-11-19T07:36:51.836Z,986.63
2022-11-19T07:37:51.827Z,986.66
2022-11-19T07:38:51.840Z,986.61
2022-11-19T07:39:51.847Z,986.62
2022-11-19T07:40:51.843Z,986.64
2022-11-19T07:41:51.836Z,986.67
2022-11-19T07:42:51.872Z,986.68
2022-11-19T07:43:51.871Z,986.66
2022-11-19T07:44:54.767Z,986.65
2022-11-19T07:45:51.870Z,986.70
2022-11-19T07:46:51.854Z,986.63
2022-11-19T07:47:51.838Z,986.65
2022-11-19T07:48:51.855Z,986.68
2022-11-19T07:49:51.890Z,986.75
2022-11-19T07:50:56.330Z,986.69
2022-11-19T07:51:51.860Z,986.81
2022-11-19T07:52:51.850Z,986.73
2022-11-19T07:53:51.860Z,986.83
2022-11-19T07:54:51.898Z,986.73
2022-11-19T07:55:51.887Z,986.82
2022-11-19T07:56:51.844Z,986.77
2022-11-19T07:57:51.871Z,986.69
2022-11-19T07:58:51.852Z,986.74
2022-11-19T07:59:51.875Z,986.75
2022-11-19T08:00:51.861Z,986.79
2022-11-19T08:01:51.910Z,986.76
2022-11-19T08:02:51.844Z,986.87
2022-11-19T08:03:55.930Z,986.85
2022-11-19T08:04:51.863Z,986.80
2022-11-19T08:05:51.867Z,986.79
2022-11-19T08:06:51.890Z,986.79
2022-11-19T08:07:51.894Z,986.77
2022-11-19T08:08:51.890Z,986.80
2022-11-19T08:09:51.878Z,986.81
2022-11-19T08:10:52.026Z,986.86
2022-11-19T08:11:52.014Z,986.87
2022-11-19T08:12:52.056Z,986.91
2022-11-19T08:13:52.053Z,986.87
2022-11-19T08:14:52.066Z,986.87
2022-11-19T08:15:52.073Z,986.94
2022-11-19T08:16:52.106Z,986.85
2022-11-19T08:17:52.100Z,986.80
2022-11-19T08:18:52.112Z,986.83
2022-11-19T08:19:52.103Z,986.83
2022-11-19T08:20:52.146Z,986.89
2022-11-19T08:21:52.134Z,986.82
2022-11-19T08:22:52.157Z,986.84
2022-11-19T08:23:52.147Z,986.81
2022-11-19T08:24:52.172Z,986.82
2022-11-19T08:25:52.198Z,986.86
2022-11-19T08:26:52.191Z,986.92
2022-11-19T08:27:52.236Z,986.92
2022-11-19T08:28:52.207Z,986.94
2022-11-19T08:29:52.229Z,986.95
2022-11-19T08:30:52.241Z,986.92
2022-11-19T08:31:52.261Z,986.95
2022-11-19T08:32:52.257Z,987.03
2022-11-19T08:33:52.267Z,987.03
2022-11-19T08:34:52.298Z,987.09
2022-11-19T08:35:52.318Z,987.01
2022-11-19T08:36:52.330Z,987.14
2022-11-19T08:37:52.351Z,987.12
2022-11-19T08:38:52.378Z,987.16
2022-11-19T08:39:52.365Z,987.19
2022-11-19T08:40:52.367Z,987.23
2022-11-19T08:41:52.420Z,987.17
2022-11-19T08:42:52.396Z,987.21
2022-11-19T08:43:52.433Z,987.23
2022-11-19T08:44:52.418Z,987.26
2022-11-19T08:45:52.453Z,987.25
2022-11-19T08:46:52.472Z,987.26
2022-11-19T08:47:52.484Z,987.27
2022-11-19T08:48:52.469Z,987.24
2022-11-19T08:49:52.488Z,987.34
2022-11-19T08:50:52.489Z,987.30
2022-11-19T08:51:52.505Z,987.26
2022-11-19T08:52:52.511Z,987.25
2022-11-19T08:53:52.545Z,987.28
2022-11-19T08:54:52.569Z,987.30
2022-11-19T08:55:52.548Z,987.24
2022-11-19T08:56:52.567Z,987.31
2022-11-19T08:57:52.583Z,987.35
2022-11-19T08:58:52.612Z,987.33
2022-11-19T08:59:52.652Z,987.35
2022-11-19T09:00:52.685Z,987.38
2022-11-19T09:01:52.656Z,987.33
2022-11-19T09:02:52.614Z,987.40
2022-11-19T09:03:52.654Z,987.45
2022-11-19T09:04:52.695Z,987.43
2022-11-19T09:05:52.688Z,987.41
2022-11-19T09:06:52.699Z,987.35
2022-11-19T09:07:52.688Z,987.35
2022-11-19T09:08:52.693Z,987.35
2022-11-19T09:09:52.727Z,987.43
2022-11-19T09:10:52.765Z,987.37
2022-11-19T09:11:52.727Z,987.37
2022-11-19T09:12:52.750Z,987.40
2022-11-19T09:13:52.790Z,987.42
2022-11-19T09:14:52.776Z,987.38
2022-11-19T09:15:52.806Z,987.39
2022-11-19T09:16:52.807Z,987.36
2022-11-19T09:17:52.813Z,987.34
2022-11-19T09:18:52.834Z,987.33
2022-11-19T09:19:52.834Z,987.35
2022-11-19T09:20:52.870Z,987.33
2022-11-19T09:21:52.915Z,987.37
2022-11-19T09:22:52.893Z,987.35
2022-11-19T09:23:52.886Z,987.36
2022-11-19T09:24:52.929Z,987.34
2022-11-19T09:25:52.900Z,987.39
2022-11-19T09:26:53.287Z,987.38
2022-11-19T09:27:52.957Z,987.42
2022-11-19T09:28:52.945Z,987.41
2022-11-19T09:29:52.961Z,987.41
2022-11-19T09:30:52.990Z,987.47
2022-11-19T09:31:53.020Z,987.42
2022-11-19T09:32:53.026Z,987.39
2022-11-19T09:33:53.027Z,987.47
2022-11-19T09:34:53.022Z,987.38
2022-11-19T09:35:53.039Z,987.41
2022-11-19T09:36:53.083Z,987.44
2022-11-19T09:37:53.054Z,987.45
2022-11-19T09:38:53.102Z,987.39
2022-11-19T09:39:53.065Z,987.52
2022-11-19T09:40:53.076Z,987.43
2022-11-19T09:41:53.162Z,987.47
2022-11-19T09:42:53.107Z,987.50
2022-11-19T09:43:53.146Z,987.51
2022-11-19T09:44:53.177Z,987.45
2022-11-19T09:45:53.147Z,987.57
2022-11-19T09:46:53.172Z,987.59
2022-11-19T09:47:53.206Z,987.60
2022-11-19T09:48:53.178Z,987.63
2022-11-19T09:49:53.218Z,987.60
2022-11-19T09:50:53.658Z,987.53
2022-11-19T09:51:53.271Z,987.63
2022-11-19T09:52:53.577Z,987.61
2022-11-19T09:53:53.275Z,987.63
2022-11-19T09:54:53.258Z,987.67
2022-11-19T09:55:53.268Z,987.60
2022-11-19T09:56:53.261Z,987.70
2022-11-19T09:57:53.297Z,987.74
2022-11-19T09:58:53.303Z,987.70
2022-11-19T09:59:53.303Z,987.68
2022-11-19T10:00:53.323Z,987.69
2022-11-19T10:01:53.355Z,987.76
2022-11-19T10:02:53.489Z,987.68
2022-11-19T10:03:53.364Z,987.70
2022-11-19T10:04:53.366Z,987.65
2022-11-19T10:05:53.378Z,987.68
2022-11-19T10:06:53.396Z,987.70
2022-11-19T10:07:53.414Z,987.71
2022-11-19T10:08:53.431Z,987.69
2022-11-19T10:09:53.451Z,987.69
2022-11-19T10:10:53.459Z,987.66
2022-11-19T10:11:53.472Z,987.73
2022-11-19T10:12:53.497Z,987.66
2022-11-19T10:13:53.505Z,987.75
2022-11-19T10:14:53.506Z,987.72
2022-11-19T10:15:53.515Z,987.76
2022-11-19T10:16:53.524Z,987.75
2022-11-19T10:17:53.560Z,987.77
2022-11-19T10:18:53.583Z,987.77
2022-11-19T10:19:53.550Z,987.71
2022-11-19T10:20:53.569Z,987.70
2022-11-19T10:21:53.596Z,987.79
2022-11-19T10:22:57.377Z,987.72
2022-11-19T10:23:53.581Z,987.84
2022-11-19T10:24:53.595Z,987.75
2022-11-19T10:25:53.581Z,987.75
2022-11-19T10:26:53.596Z,987.86
2022-11-19T10:27:53.618Z,987.80
2022-11-19T10:28:53.627Z,987.85
2022-11-19T10:29:53.609Z,987.84
2022-11-19T10:30:53.583Z,987.91
2022-11-19T10:31:53.613Z,987.82
2022-11-19T10:32:53.623Z,987.84
2022-11-19T10:33:55.015Z,987.85
2022-11-19T10:34:53.585Z,987.84
2022-11-19T10:35:53.601Z,987.81
2022-11-19T10:36:53.615Z,987.81
2022-11-19T10:37:53.627Z,987.80
2022-11-19T10:38:53.656Z,987.86
2022-11-19T10:39:53.582Z,987.79
2022-11-19T10:40:53.623Z,987.84
2022-11-19T10:41:53.625Z,987.83
2022-11-19T10:42:53.617Z,987.84
2022-11-19T10:43:53.635Z,987.78
2022-11-19T10:44:53.616Z,987.78
2022-11-19T10:45:53.608Z,987.85
2022-11-19T10:46:53.619Z,987.83
2022-11-19T10:47:53.614Z,987.84
2022-11-19T10:48:53.643Z,987.88
2022-11-19T10:49:53.649Z,987.86
2022-11-19T10:50:53.617Z,987.80
2022-11-19T10:51:53.599Z,987.80
2022-11-19T10:52:53.596Z,987.76
2022-11-19T10:53:53.617Z,987.78
2022-11-19T10:54:53.657Z,987.77
2022-11-19T10:55:54.901Z,987.80
2022-11-19T10:56:53.619Z,987.79
2022-11-19T10:57:53.629Z,987.83
2022-11-19T10:58:53.607Z,987.75
2022-11-19T10:59:53.619Z,987.77
2022-11-19T11:00:53.689Z,987.76
2022-11-19T11:01:53.640Z,987.76
2022-11-19T11:02:53.615Z,987.68
2022-11-19T11:03:53.620Z,987.75
2022-11-19T11:04:53.653Z,987.73
2022-11-19T11:05:53.640Z,987.77
2022-11-19T11:06:53.617Z,987.79
2022-11-19T11:07:53.687Z,987.77
2022-11-19T11:08:53.648Z,987.73
2022-11-19T11:09:53.650Z,987.75
2022-11-19T11:10:53.644Z,987.83
2022-11-19T11:11:53.658Z,987.77
2022-11-19T11:12:53.637Z,987.76
2022-11-19T11:13:53.634Z,987.82
2022-11-19T11:14:53.629Z,987.86
2022-11-19T11:15:53.636Z,987.80
2022-11-19T11:16:53.614Z,987.82
2022-11-19T11:17:53.647Z,987.79
2022-11-19T11:18:53.654Z,987.79
2022-11-19T11:19:53.625Z,987.75
2022-11-19T11:20:53.654Z,987.73
2022-11-19T11:21:53.639Z,987.70
2022-11-19T11:22:53.640Z,987.79
2022-11-19T11:23:53.627Z,987.74
2022-11-19T11:24:53.647Z,987.72
2022-11-19T11:25:53.659Z,987.69
2022-11-19T11:26:53.630Z,987.74
2022-11-19T11:27:53.656Z,987.79
2022-11-19T11:28:53.654Z,987.66
2022-11-19T11:29:53.648Z,987.68
2022-11-19T11:30:53.660Z,987.70
2022-11-19T11:31:53.683Z,987.67
2022-11-19T11:32:53.675Z,987.62
2022-11-19T11:33:53.781Z,987.60
2022-11-19T11:34:53.669Z,987.63
2022-11-19T11:35:53.683Z,987.62
2022-11-19T11:36:53.636Z,987.66
2022-11-19T11:37:53.642Z,987.67
2022-11-19T11:38:53.676Z,987.58
2022-11-19T11:39:53.646Z,987.59
2022-11-19T11:41:11.546Z,987.67
2022-11-19T11:42:06.628Z,987.63
2022-11-19T11:42:53.632Z,987.66
2022-11-19T11:43:53.673Z,987.66
2022-11-19T11:44:53.654Z,987.69
2022-11-19T11:45:53.652Z,987.72
2022-11-19T11:46:53.664Z,987.63
2022-11-19T11:47:53.698Z,987.67
2022-11-19T11:48:53.691Z,987.69
2022-11-19T11:49:53.694Z,987.64
2022-11-19T11:50:53.687Z,987.65
2022-11-19T11:51:53.683Z,987.68
2022-11-19T11:52:53.687Z,987.67
2022-11-19T11:53:53.706Z,987.67
2022-11-19T11:54:53.701Z,987.68
2022-11-19T11:55:53.695Z,987.74
2022-11-19T11:56:53.706Z,987.73
2022-11-19T11:57:53.708Z,987.69
2022-11-19T11:58:53.701Z,987.74
2022-11-19T11:59:53.697Z,987.85
2022-11-19T12:00:53.712Z,987.71
2022-11-19T12:01:53.794Z,987.74
2022-11-19T12:02:53.699Z,987.76
2022-11-19T12:03:55.155Z,987.66
2022-11-19T12:04:53.708Z,987.68
2022-11-19T12:05:53.714Z,987.70
2022-11-19T12:06:53.695Z,987.67
2022-11-19T12:07:53.719Z,987.74
2022-11-19T12:08:53.730Z,987.72
2022-11-19T12:09:53.716Z,987.69
2022-11-19T12:10:53.666Z,987.73
2022-11-19T12:11:53.718Z,987.73
2022-11-19T12:12:53.674Z,987.74
2022-11-19T12:13:53.685Z,987.74
2022-11-19T12:14:53.693Z,987.73
2022-11-19T12:15:53.678Z,987.77
2022-11-19T12:16:53.736Z,987.78
2022-11-19T12:17:53.719Z,987.78
2022-11-19T12:18:53.716Z,987.91
2022-11-19T12:19:53.694Z,987.88
2022-11-19T12:20:53.709Z,987.85
2022-11-19T12:21:53.706Z,987.91
2022-11-19T12:22:53.688Z,987.89
2022-11-19T12:23:53.724Z,987.87
2022-11-19T12:24:53.704Z,987.87
2022-11-19T12:25:53.733Z,987.89
2022-11-19T12:26:53.708Z,987.87
2022-11-19T12:27:53.727Z,987.82
2022-11-19T12:28:53.778Z,987.77